YBAS Airport Information

Runway Information
Runway 12 Length 7999 ft width 148 ft
Elevation 1786 ft Threshold 0 ft Heading 120
Runway 30 Length 7999 ft Width 148 ft
Elevation 1763 ft Threshold 0 ft Heading 300
Runway 17 Length 3717 ft width 60 ft
Elevation 1789 ft Threshold 0 ft Heading 178
Runway 35 Length 3717 ft Width 60 ft
Elevation 1778 ft Threshold 0 ft Heading 358
Airport Frequencies
Type ATIS Name ATIS Frequency 115.9 MHZ
Type CTAF Name CTAF Frequency 118.3 MHZ
Type FSS Name MELBOURNE Frequency 119.8 MHZ
Type TWR Name TWR Frequency 118.3 MHZ
Airport Navaids
Type VOR-DME Name Alice Springs Frequency 115900 KHZ
Type NDB Name Alice Springs Frequency 335 KHZ
Type NDB Name Simpsons Gap Frequency 362 KHZ
Type NDB Name Temple Bar Frequency 352 KHZ
Type NDB Name Wallaby Frequency 372 KHZ
Airport Weather Information & NOTAM
ADDS - METARS form results

(0120 UTC 23 February 2020)
Data provider http://aviationweather.gov/metar/data/
 
METAR text: YBAS 230100Z AUTO 15014KT 090V150 9999 // NCD 30/00 Q1015
Conditions at: YBAS (ALICE SPRINGS AR, AU) observed 0100 UTC 23 February 2020
Temperature: 30.0°C (86°F)
Dewpoint: 0.0°C (32°F) [RH = 14%]
Pressure (altimeter): 29.97 inches Hg (1015.0 mb)
Winds: from the SSE (150 degrees) at 16 MPH (14 knots; 7.2 m/s)
Visibility: 6 or more miles (10+ km)
Ceiling: at least 12,000 feet AGL
Clouds: sky clear below 12,000 feet AGL
Weather: no significant weather observed at this time

METAR text: YBAS 230030Z AUTO 11011KT 9999 // NCD 29/00 Q1015 RF00.0/000.0
Conditions at: YBAS (ALICE SPRINGS AR, AU) observed 0030 UTC 23 February 2020
Temperature: 29.0°C (84°F)
Dewpoint: 0.0°C (32°F) [RH = 15%]
Pressure (altimeter): 29.97 inches Hg (1015.0 mb)
Winds: from the ESE (110 degrees) at 13 MPH (11 knots; 5.7 m/s)
Visibility: 6 or more miles (10+ km)
Ceiling: at least 12,000 feet AGL
Clouds: sky clear below 12,000 feet AGL
Weather: no significant weather observed at this time

Forecast for: YBAS (ALICE SPRINGS AR, AU)
Text: TAF YBAS 222313Z 2300/2400 12014KT CAVOK
Forecast period: 0000 to 1000 UTC 23 February 2020
Forecast type: FROM: standard forecast or significant change
Winds: from the ESE (120 degrees) at 16 MPH (14 knots; 7.2 m/s)
Visibility: 6 or more miles 10+ km)
Ceiling: unknown
Clouds: missing
Weather: NSW  (no significant weather)
Text: FM231000 13008KT CAVOK
Forecast period: 1000 UTC 23 February 2020 to 0000 UTC 24 February 2020
Forecast type: FROM: standard forecast or significant change
Winds: from the SE (130 degrees) at 9 MPH (8 knots; 4.1 m/s)
Visibility: 6 or more miles 10+ km)
Ceiling: unknown
Clouds: missing
Weather: NSW  (no significant weather)